Time;durP1;ratioP1;P1;durP2;ratioP2;P2;SDS_P1;SDS_P2;PMS_P1;PMS_P2;Temp;Humidity;BMP_temperature;BMP_pressure;BME280_temperature;BME280_humidity;BME280_pressure;Samples;Min_cycle;Max_cycle;Signal;HPM_P1;HPM_P2
2023/01/03 00:01:41;;;;;;;18.67;9.48;;;;;;;7.19;89.22;99160.78;1709087;81;25737;-67
2023/01/03 00:04:10;;;;;;;18.23;8.78;;;;;;;7.20;89.00;99166.48;1732208;81;25637;-67
2023/01/03 00:06:44;;;;;;;19.45;9.55;;;;;;;7.20;89.11;99157.52;1708547;81;25948;-67
2023/01/03 00:09:20;;;;;;;28.60;12.10;;;;;;;7.20;89.02;99158.88;1753870;81;25416;-67
2023/01/03 00:14:41;;;;;;;22.80;9.55;;;;;;;7.19;88.83;99165.44;1736475;81;25665;-67
2023/01/03 00:17:10;;;;;;;15.83;7.90;;;;;;;7.15;89.06;99170.08;1729399;81;25690;-67
2023/01/03 00:19:41;;;;;;;17.85;7.55;;;;;;;7.16;89.18;99174.96;1708635;81;25642;-67
2023/01/03 00:22:08;;;;;;;;;;;;;;;7.17;89.00;99186.16;1735082;81;25524;-67
2023/01/03 00:24:34;;;;;;;16.67;8.65;;;;;;;7.17;88.78;99182.06;1731421;81;27642;-67
2023/01/03 00:27:00;;;;;;;18.87;9.48;;;;;;;7.13;88.81;99183.16;1707224;81;25622;-67
2023/01/03 00:29:27;;;;;;;16.45;8.33;;;;;;;7.14;88.74;99187.50;1708891;81;25472;-67
2023/01/03 00:31:53;;;;;;;14.43;8.10;;;;;;;7.13;88.80;99186.42;1706933;81;25523;-67
2023/01/03 00:34:19;;;;;;;14.78;7.37;;;;;;;7.14;88.91;99203.06;1708816;81;25562;-67
2023/01/03 00:36:46;;;;;;;16.57;8.08;;;;;;;7.12;88.93;99196.52;1708402;81;27430;-67
2023/01/03 00:39:12;;;;;;;14.03;7.35;;;;;;;7.14;88.86;99202.50;1732858;81;25925;-67
2023/01/03 00:41:39;;;;;;;15.90;8.03;;;;;;;7.13;88.82;99199.52;1708025;81;25811;-67
2023/01/03 00:44:06;;;;;;;20.00;10.53;;;;;;;7.15;88.77;99208.77;1731989;81;25550;-67
2023/01/03 00:46:32;;;;;;;13.48;6.80;;;;;;;7.12;88.52;99210.16;1695681;83;25772;-67
2023/01/03 00:48:58;;;;;;;16.87;8.35;;;;;;;7.11;88.80;99209.06;1699166;83;27434;-67
2023/01/03 00:51:28;;;;;;;14.50;6.35;;;;;;;7.10;88.81;99204.69;1698974;83;27202;-67
2023/01/03 00:53:57;;;;;;;16.07;8.20;;;;;;;7.09;88.97;99201.70;1671772;83;25520;-67
2023/01/03 00:56:27;;;;;;;17.23;9.85;;;;;;;7.07;89.04;99212.05;1676125;83;25642;-67
2023/01/03 00:58:54;;;;;;;11.28;6.28;;;;;;;7.06;88.92;99216.70;1699495;83;25735;-67
2023/01/03 01:01:25;;;;;;;16.15;8.35;;;;;;;7.07;88.97;99221.59;1699242;83;27393;-67
2023/01/03 01:03:58;;;;;;;19.23;9.93;;;;;;;7.04;89.03;99224.33;1725860;83;26098;-67
2023/01/03 01:06:32;;;;;;;13.30;6.30;;;;;;;7.05;88.64;99218.34;1699395;83;25492;-67
2023/01/03 01:09:01;;;;;;;17.60;9.35;;;;;;;7.02;89.06;99206.89;1725945;83;25645;-67
2023/01/03 01:11:28;;;;;;;18.85;9.53;;;;;;;7.02;88.86;99216.44;1695014;83;25451;-67
2023/01/03 01:13:55;;;;;;;15.93;8.10;;;;;;;7.01;88.76;99203.08;1699090;83;27276;-67
2023/01/03 01:16:26;;;;;;;15.72;8.30;;;;;;;6.99;88.99;99210.17;1675865;83;26648;-67
2023/01/03 01:18:53;;;;;;;14.98;7.85;;;;;;;6.98;89.10;99207.19;1672411;83;25625;-67
2023/01/03 01:21:23;;;;;;;19.73;9.48;;;;;;;6.98;88.97;99203.09;1675875;83;25489;-67
2023/01/03 01:23:51;;;;;;;14.25;7.70;;;;;;;6.98;88.97;99207.72;1676474;83;25461;-67
2023/01/03 01:26:21;;;;;;;19.70;9.73;;;;;;;6.95;89.19;99211.83;1726178;83;27662;-67
2023/01/03 01:28:50;;;;;;;20.17;11.12;;;;;;;6.95;89.33;99217.81;1675928;83;25788;-67
2023/01/03 01:31:22;;;;;;;21.30;9.43;;;;;;;6.97;88.86;99227.33;1699857;83;25714;-67
2023/01/03 01:33:48;;;;;;;18.45;9.05;;;;;;;6.96;88.80;99218.89;1672028;83;25695;-67
2023/01/03 01:36:26;;;;;;;15.50;7.85;;;;;;;6.96;88.93;99224.88;1675554;83;25702;-67
2023/01/03 01:38:57;;;;;;;23.38;11.08;;;;;;;6.97;88.95;99223.81;1671181;83;27144;-67
2023/01/03 01:45:05;;;;;;;15.93;7.42;;;;;;;6.97;88.81;99230.63;1700842;83;25416;-67
2023/01/03 01:47:39;;;;;;;16.02;8.40;;;;;;;6.96;89.10;99231.70;1689356;83;25441;-66
2023/01/03 01:50:26;;;;;;;21.75;9.50;;;;;;;6.97;88.94;99231.98;1713647;83;25665;-67
2023/01/03 01:53:04;;;;;;;18.42;9.90;;;;;;;6.98;89.14;99226.80;1715105;83;28623;-66
2023/01/03 01:55:57;;;;;;;21.45;11.45;;;;;;;6.96;89.23;99228.44;1683608;83;25748;-66
2023/01/03 01:58:28;;;;;;;19.95;9.75;;;;;;;6.96;89.19;99236.61;1713424;83;25524;-66
2023/01/03 02:00:55;;;;;;;14.65;8.40;;;;;;;6.98;89.07;99238.52;1713008;83;25599;-66
2023/01/03 02:03:21;;;;;;;18.20;9.30;;;;;;;6.99;89.29;99247.50;1666133;83;25519;-66
2023/01/03 02:05:52;;;;;;;21.80;10.85;;;;;;;7.00;89.32;99251.88;1689632;83;27554;-66
2023/01/03 02:08:18;;;;;;;22.82;12.37;;;;;;;7.04;89.28;99243.41;1716025;83;25845;-66
2023/01/03 02:11:23;;;;;;;16.77;8.73;;;;;;;7.07;89.03;99252.40;1689714;83;25556;-66
2023/01/03 02:14:37;;;;;;;15.38;7.62;;;;;;;7.09;89.02;99242.05;1715862;83;25430;-66
2023/01/03 02:17:26;;;;;;;18.73;9.75;;;;;;;7.09;88.97;99250.77;1689381;83;25458;-66
2023/01/03 02:20:16;;;;;;;16.40;8.78;;;;;;;7.08;88.95;99249.94;1716042;83;27377;-66
2023/01/03 02:23:21;;;;;;;22.98;9.93;;;;;;;7.07;89.06;99257.02;1713210;82;25831;-66
2023/01/03 02:26:20;;;;;;;20.62;10.23;;;;;;;7.04;89.01;99261.13;1715857;83;25476;-66
2023/01/03 02:28:54;;;;;;;19.90;9.95;;;;;;;7.00;89.01;99260.05;1689434;83;26044;-66
2023/01/03 02:31:38;;;;;;;21.37;10.13;;;;;;;6.97;89.35;99270.13;1689383;83;25774;-66
2023/01/03 02:34:28;;;;;;;22.82;11.30;;;;;;;6.95;89.55;99279.12;1715742;83;28495;-66
2023/01/03 02:37:22;;;;;;;22.32;11.70;;;;;;;6.98;89.48;99286.75;1713244;83;25692;-66
2023/01/03 02:40:12;;;;;;;21.15;11.10;;;;;;;6.98;89.66;99286.75;1689028;83;25737;-67
2023/01/03 02:43:01;;;;;;;26.55;12.85;;;;;;;7.02;89.35;99291.38;1686132;83;26037;-67
2023/01/03 02:45:49;;;;;;;17.77;9.43;;;;;;;7.04;89.42;99288.38;1715441;83;25717;-67
2023/01/03 02:49:00;;;;;;;23.30;12.10;;;;;;;7.07;89.51;99300.09;1689102;83;26747;-67
2023/01/03 02:51:30;;;;;;;;;;;;;;;7.08;89.42;99294.91;1691878;83;25529;-67
2023/01/03 02:53:59;;;;;;;19.92;10.30;;;;;;;7.12;89.32;99302.00;1715884;83;25585;-67
2023/01/03 02:56:30;;;;;;;19.60;9.60;;;;;;;7.12;89.49;99311.00;1715807;83;25755;-67
2023/01/03 02:59:02;;;;;;;17.85;9.73;;;;;;;7.13;89.37;99314.52;1713365;83;25431;-67
2023/01/03 03:01:30;;;;;;;17.25;9.60;;;;;;;7.16;89.21;99322.16;1688905;83;27247;-67
2023/01/03 03:03:59;;;;;;;18.75;9.25;;;;;;;7.16;89.19;99335.78;1689309;83;25854;-67
2023/01/03 03:06:39;;;;;;;18.17;9.15;;;;;;;7.20;89.17;99355.14;1653388;83;25537;-67
2023/01/03 03:09:06;;;;;;;17.67;8.88;;;;;;;7.23;89.10;99358.13;1654566;86;25689;-67
2023/01/03 03:14:28;;;;;;;25.32;11.45;;;;;;;7.31;88.85;99367.66;1635803;86;25626;-67
2023/01/03 03:16:59;;;;;;;20.40;10.35;;;;;;;7.36;88.67;99371.75;1654681;86;25867;-67
2023/01/03 03:25:48;;;;;;;22.30;10.20;;;;;;;7.35;88.49;99357.86;1635783;86;25547;-67
2023/01/03 03:28:34;;;;;;;20.57;10.95;;;;;;;7.34;88.42;99366.31;1631211;86;27364;-67
2023/01/03 03:31:18;;;;;;;36.35;14.50;;;;;;;7.31;88.59;99373.67;1632156;86;25505;-67
2023/01/03 03:33:55;;;;;;;26.02;12.25;;;;;;;7.31;88.61;99370.39;1653906;86;25550;-67
2023/01/03 03:36:41;;;;;;;30.68;14.23;;;;;;;7.32;88.58;99376.13;1654520;86;25712;-67
2023/01/03 03:44:59;;;;;;;24.45;12.25;;;;;;;7.34;88.43;99373.92;1654446;86;25512;-67
2023/01/03 03:47:49;;;;;;;23.45;12.70;;;;;;;7.42;88.23;99375.28;1724557;83;25626;-67
2023/01/03 03:50:39;;;;;;;25.70;12.13;;;;;;;7.46;88.03;99376.92;1728581;83;25650;-67
2023/01/03 03:53:09;;;;;;;25.37;11.83;;;;;;;7.47;87.99;99387.56;1703900;83;25684;-67
2023/01/03 03:55:50;;;;;;;25.55;13.15;;;;;;;7.48;87.89;99391.91;1704603;83;27107;-67
2023/01/03 03:58:39;;;;;;;22.67;10.98;;;;;;;7.48;87.86;99396.00;1728209;83;35109;-66
2023/01/03 04:01:08;;;;;;;21.23;11.00;;;;;;;7.45;87.94;99393.03;1728934;83;25638;-66
2023/01/03 04:03:38;;;;;;;26.62;13.38;;;;;;;7.43;87.97;99395.20;1681024;83;25594;-66
2023/01/03 04:06:28;;;;;;;26.35;12.45;;;;;;;7.39;88.00;99397.65;1704010;83;25795;-66
2023/01/03 04:08:54;;;;;;;28.70;13.80;;;;;;;7.34;88.18;99406.64;1728547;83;27473;-66
2023/01/03 04:11:20;;;;;;;25.30;12.73;;;;;;;7.34;88.04;99408.58;1704138;83;25790;-66
2023/01/03 04:13:47;;;;;;;22.27;11.93;;;;;;;7.32;88.09;99410.22;1680376;83;25742;-67
2023/01/03 04:16:13;;;;;;;27.17;13.68;;;;;;;7.33;88.05;99414.56;1680409;83;25611;-66
2023/01/03 04:18:39;;;;;;;26.95;12.18;;;;;;;7.36;87.98;99419.47;1652381;83;25460;-67
2023/01/03 04:21:05;;;;;;;22.32;11.43;;;;;;;7.39;87.92;99418.09;1704050;83;27458;-67
2023/01/03 04:23:31;;;;;;;29.07;13.22;;;;;;;7.40;87.91;99421.13;1699295;83;25745;-66
2023/01/03 04:25:57;;;;;;;31.37;16.00;;;;;;;7.43;87.74;99426.56;1653293;83;25684;-66
2023/01/03 04:28:23;;;;;;;27.42;13.93;;;;;;;7.44;87.73;99422.73;1704217;83;25609;-67
2023/01/03 04:30:49;;;;;;;24.45;13.60;;;;;;;7.47;87.71;99427.64;1703623;83;25693;-66
2023/01/03 04:33:16;;;;;;;27.15;14.20;;;;;;;7.48;87.58;99430.63;1704133;83;27302;-67
2023/01/03 04:35:44;;;;;;;28.77;12.75;;;;;;;7.50;87.52;99432.55;1680323;83;25528;-67
2023/01/03 04:38:10;;;;;;;33.95;16.15;;;;;;;7.51;87.40;99430.09;1704685;83;25788;-67
2023/01/03 04:40:37;;;;;;;28.87;14.83;;;;;;;7.48;87.36;99436.09;1703865;83;25469;-66
2023/01/03 04:45:49;;;;;;;24.20;12.55;;;;;;;7.44;87.32;99427.66;1706388;83;25801;-67
2023/01/03 04:48:16;;;;;;;24.12;13.08;;;;;;;7.40;87.31;99432.83;1726661;83;25448;-67
2023/01/03 04:50:55;;;;;;;24.47;14.15;;;;;;;7.37;87.30;99437.46;1651047;83;25631;-67
2023/01/03 04:53:22;;;;;;;22.95;13.15;;;;;;;7.34;87.32;99444.02;1678530;83;25971;-67
2023/01/03 04:55:50;;;;;;;21.52;11.75;;;;;;;7.34;87.38;99439.37;1673898;83;25488;-66
2023/01/03 04:58:18;;;;;;;20.37;10.30;;;;;;;7.38;87.36;99438.28;1674038;83;27253;-66
2023/01/03 05:00:44;;;;;;;23.15;12.43;;;;;;;7.38;87.26;99433.66;1697409;83;25839;-67
2023/01/03 05:03:11;;;;;;;23.00;12.70;;;;;;;7.43;87.18;99441.56;1673849;83;25685;-67
2023/01/03 05:05:38;;;;;;;25.43;12.10;;;;;;;7.45;87.05;99439.39;1701791;83;25749;-67
2023/01/03 05:08:08;;;;;;;21.12;10.82;;;;;;;7.48;86.97;99440.17;1678825;83;25690;-67
2023/01/03 05:10:34;;;;;;;22.42;12.90;;;;;;;7.50;86.87;99441.56;1701068;83;27448;-67
2023/01/03 05:13:00;;;;;;;28.02;13.53;;;;;;;7.52;86.79;99437.99;1678525;83;25695;-67
2023/01/03 05:15:29;;;;;;;28.90;13.65;;;;;;;7.52;86.71;99437.20;1678326;83;25514;-67
2023/01/03 05:17:56;;;;;;;23.40;11.57;;;;;;;7.48;86.67;99441.00;1702545;83;26205;-67
2023/01/03 05:26:09;;;;;;;25.23;12.90;;;;;;;7.34;86.81;99445.39;1685740;83;25685;-66
2023/01/03 05:28:36;;;;;;;24.92;12.78;;;;;;;7.31;86.93;99446.73;1702147;83;25543;-66
2023/01/03 05:31:02;;;;;;;25.05;13.38;;;;;;;7.32;86.89;99455.73;1701870;83;25622;-66
2023/01/03 05:33:28;;;;;;;23.40;11.90;;;;;;;7.31;86.99;99459.00;1678112;83;25438;-66
2023/01/03 05:35:54;;;;;;;25.90;13.78;;;;;;;7.33;86.99;99454.10;1698347;83;27391;-67
2023/01/03 05:38:22;;;;;;;27.80;15.03;;;;;;;7.37;86.89;99458.48;1701507;83;25754;-66
2023/01/03 05:40:49;;;;;;;19.55;10.65;;;;;;;7.41;86.85;99458.20;1726626;83;25558;-66
2023/01/03 05:43:16;;;;;;;20.17;11.05;;;;;;;7.40;86.70;99462.82;1701927;83;26242;-66
2023/01/03 05:45:42;;;;;;;21.57;11.85;;;;;;;7.41;86.69;99467.74;1701649;83;25685;-66
2023/01/03 05:48:08;;;;;;;24.35;12.90;;;;;;;7.41;86.65;99473.20;1678523;83;27571;-66
2023/01/03 05:50:41;;;;;;;27.10;14.70;;;;;;;7.42;86.66;99484.37;1644884;83;25522;-69
2023/01/03 05:53:07;;;;;;;33.35;16.52;;;;;;;7.37;86.66;99482.45;1691680;83;25753;-69
2023/01/03 05:55:37;;;;;;;24.77;14.60;;;;;;;7.34;86.70;99493.91;1695762;83;25658;-68
2023/01/03 05:58:05;;;;;;;21.62;11.93;;;;;;;7.28;86.52;99491.72;1695812;83;25922;-68
2023/01/03 06:00:31;;;;;;;27.87;14.23;;;;;;;7.21;86.54;99493.91;1677199;83;27334;-68
2023/01/03 06:02:58;;;;;;;33.75;16.35;;;;;;;7.20;86.68;99494.97;1721424;83;25602;-67
2023/01/03 06:05:26;;;;;;;28.45;13.98;;;;;;;7.20;86.55;99500.42;1696860;83;25893;-69
2023/01/03 06:07:54;;;;;;;21.62;12.58;;;;;;;7.17;86.61;99502.89;1677340;83;25928;-68
2023/01/03 06:10:21;;;;;;;25.77;13.65;;;;;;;7.13;86.83;99504.79;1669094;83;25800;-69
2023/01/03 06:12:49;;;;;;;32.28;15.83;;;;;;;7.13;87.10;99503.96;1637318;84;28449;-68
2023/01/03 06:15:15;;;;;;;21.85;12.23;;;;;;;7.17;87.13;99507.80;1693361;83;25772;-69
2023/01/03 06:17:56;;;;;;;21.07;10.98;;;;;;;7.15;87.03;99509.98;1689539;81;25726;-69
2023/01/03 06:20:27;;;;;;;22.33;12.07;;;;;;;7.12;87.44;99519.52;1730593;81;25732;-69
2023/01/03 06:22:56;;;;;;;27.22;15.20;;;;;;;7.13;87.59;99521.68;1724387;81;25753;-69
2023/01/03 06:25:22;;;;;;;27.55;15.95;;;;;;;7.12;87.50;99526.33;1747688;81;28352;-67
2023/01/03 06:27:53;;;;;;;24.00;13.43;;;;;;;7.10;87.45;99527.67;1754651;81;25629;-69
2023/01/03 06:30:20;;;;;;;29.45;15.78;;;;;;;7.11;87.49;99536.94;1748385;81;25927;-69
2023/01/03 06:32:47;;;;;;;42.27;19.52;;;;;;;7.13;87.38;99542.13;1727747;81;25470;-67
2023/01/03 06:35:14;;;;;;;33.58;16.37;;;;;;;7.16;87.26;99534.77;1729424;81;25230;-69
2023/01/03 06:37:44;;;;;;;27.67;13.70;;;;;;;7.21;87.13;99540.25;1755168;81;28241;-69
2023/01/03 06:40:13;;;;;;;28.57;14.90;;;;;;;7.26;87.07;99547.05;1729016;81;25819;-69
2023/01/03 06:42:43;;;;;;;26.40;13.75;;;;;;;7.29;86.85;99551.17;1730706;81;25234;-69
2023/01/03 16:19:00;;;;;;;43.60;23.07;;;;;;;8.50;70.64;99750.81;1837407;77;25610;-73
2023/01/03 16:21:27;;;;;;;43.63;21.55;;;;;;;8.38;70.59;99746.98;1798065;79;25656;-74
2023/01/03 16:23:53;;;;;;;38.00;18.77;;;;;;;8.28;70.65;99749.15;1735832;80;28343;-74
2023/01/03 16:26:20;;;;;;;41.85;21.00;;;;;;;8.19;70.65;99746.67;1725569;80;25733;-73
2023/01/03 16:28:47;;;;;;;33.00;15.68;;;;;;;8.06;70.77;99752.13;1745925;79;25837;-72
2023/01/03 16:31:21;;;;;;;31.07;14.38;;;;;;;7.98;70.74;99758.39;1781056;79;26078;-71
2023/01/03 16:33:49;;;;;;;20.95;11.55;;;;;;;7.92;70.73;99759.47;1794175;79;25707;-73
2023/01/03 16:36:38;;;;;;;27.62;15.10;;;;;;;7.83;70.70;99761.88;1725100;80;27319;-73
2023/01/03 16:39:21;;;;;;;25.80;13.08;;;;;;;7.80;70.79;99762.97;1751259;80;25708;-72
2023/01/03 16:44:23;;;;;;;33.33;17.17;;;;;;;7.68;70.81;99767.30;1642541;85;25579;-73
2023/01/03 16:46:50;;;;;;;34.43;16.48;;;;;;;7.60;70.93;99758.52;1639285;85;25482;-73
2023/01/03 16:49:17;;;;;;;28.55;14.73;;;;;;;7.52;71.23;99759.05;1685793;85;27503;-73
2023/01/03 16:51:49;;;;;;;30.50;15.00;;;;;;;7.46;71.15;99758.74;1661421;85;25838;-72
2023/01/03 16:54:12;;;;;;;41.90;19.12;;;;;;;7.40;71.40;99766.89;1662182;85;25755;-73
2023/01/03 16:56:39;;;;;;;45.08;21.90;;;;;;;7.32;71.55;99772.86;1657532;85;26533;-73
2023/01/03 16:59:18;;;;;;;59.75;27.17;;;;;;;7.24;71.74;99764.64;1662699;85;25546;-73
2023/01/03 17:01:45;;;;;;;67.27;32.23;;;;;;;7.17;71.86;99764.06;1655145;85;27682;-73
2023/01/03 17:04:12;;;;;;;64.07;32.00;;;;;;;7.06;71.98;99767.79;1662640;85;25952;-72
2023/01/03 17:06:40;;;;;;;64.75;33.55;;;;;;;6.95;72.17;99766.90;1662641;85;25727;-73
2023/01/03 17:09:42;;;;;;;59.98;31.33;;;;;;;6.89;72.37;99767.41;1639098;85;25771;-70
2023/01/03 17:12:27;;;;;;;70.70;31.75;;;;;;;6.87;72.51;99773.66;1606134;89;25548;-74
2023/01/03 17:14:53;;;;;;;60.20;29.30;;;;;;;6.85;72.64;99775.28;1585360;89;27441;-73
2023/01/03 17:17:22;;;;;;;55.30;26.48;;;;;;;6.84;72.64;99780.45;1607426;89;25612;-73
2023/01/03 17:19:49;;;;;;;59.00;29.80;;;;;;;6.85;72.70;99779.92;1628232;87;25569;-72
2023/01/03 17:22:21;;;;;;;67.58;32.55;;;;;;;6.85;72.73;99782.65;1664661;85;25491;-74
2023/01/03 17:24:49;;;;;;;94.90;42.62;;;;;;;6.80;72.80;99779.34;1643134;85;25652;-73
2023/01/03 17:27:20;;;;;;;94.05;42.83;;;;;;;6.71;72.93;99781.70;1665942;85;27403;-74
2023/01/03 17:29:52;;;;;;;58.28;29.60;;;;;;;6.64;73.09;99786.02;1665477;85;25919;-73
2023/01/03 17:32:20;;;;;;;53.17;27.60;;;;;;;6.59;73.11;99779.72;1688204;85;25490;-73
2023/01/03 17:34:46;;;;;;;49.67;24.15;;;;;;;6.48;73.16;99780.17;1688345;85;26097;-74
2023/01/03 17:37:18;;;;;;;41.95;22.90;;;;;;;6.40;73.31;99784.98;1688417;85;25767;-74
2023/01/03 17:39:49;;;;;;;42.60;21.37;;;;;;;6.30;73.45;99788.97;1664901;85;28021;-74
2023/01/03 17:42:16;;;;;;;37.83;20.12;;;;;;;6.19;73.56;99788.04;1664575;85;25489;-74
2023/01/03 17:49:23;;;;;;;34.83;19.77;;;;;;;6.09;73.76;99791.50;1664835;85;25826;-74
2023/01/03 17:50:08;;;;;;;36.68;20.75;;;;;;;5.92;74.12;99780.66;1752980;80;25722;-74
2023/01/03 17:52:37;;;;;;;36.50;18.82;;;;;;;5.86;74.24;99783.03;1750903;80;27425;-74
2023/01/03 17:55:09;;;;;;;44.18;20.68;;;;;;;5.81;74.33;99783.80;1725675;80;25733;-75
2023/01/03 17:57:35;;;;;;;48.40;23.40;;;;;;;5.80;74.37;99795.77;1746444;80;25673;-75
2023/01/03 18:00:06;;;;;;;63.78;28.60;;;;;;;5.80;74.37;99790.85;1783206;80;25873;-74
2023/01/03 18:02:32;;;;;;;;;;;;;;;5.79;74.48;99791.41;1785417;80;25407;-74
2023/01/03 18:04:59;;;;;;;74.62;30.48;;;;;;;5.77;74.48;99788.11;1783038;80;27379;-75
2023/01/03 18:07:30;;;;;;;79.95;36.53;;;;;;;5.76;74.51;99789.19;1725727;80;25477;-74
2023/01/03 18:09:56;;;;;;;122.55;49.50;;;;;;;5.74;74.68;99791.33;1780823;80;25669;-74
2023/01/03 18:12:25;;;;;;;105.10;43.83;;;;;;;5.73;74.77;99791.06;1735426;81;25847;-74
2023/01/03 18:14:52;;;;;;;108.32;47.62;;;;;;;5.71;74.81;99792.67;1711724;81;25705;-75
2023/01/03 18:17:31;;;;;;;135.03;51.95;;;;;;;5.69;74.86;99805.69;1735194;81;27701;-75
2023/01/03 18:19:59;;;;;;;218.78;85.07;;;;;;;5.58;74.82;99806.65;1701545;81;25624;-74
2023/01/03 18:22:26;;;;;;;132.95;60.73;;;;;;;5.31;75.57;99805.99;1711271;81;25809;-73
2023/01/03 18:24:54;;;;;;;160.20;71.77;;;;;;;5.11;76.09;99809.53;1711183;81;26331;-74
2023/01/03 18:27:24;;;;;;;109.22;49.80;;;;;;;4.96;76.99;99816.09;1760781;80;25425;-75
2023/01/03 18:29:51;;;;;;;113.77;53.58;;;;;;;4.79;77.00;99818.80;1760496;80;27424;-75
2023/01/03 18:32:29;;;;;;;143.28;61.55;;;;;;;4.66;77.05;99813.97;1760165;81;25637;-74
2023/01/03 18:34:56;;;;;;;155.43;69.15;;;;;;;4.64;77.30;99814.77;1760077;81;25638;-75
2023/01/03 18:37:27;;;;;;;159.57;66.05;;;;;;;4.62;77.39;99813.66;1711107;81;25455;-74
2023/01/03 18:39:54;;;;;;;128.97;61.40;;;;;;;4.60;77.31;99813.59;1765241;81;25725;-72
2023/01/03 18:45:09;;;;;;;125.72;59.03;;;;;;;4.58;77.23;99813.03;1719132;81;25582;-75
2023/01/03 18:47:36;;;;;;;130.75;58.60;;;;;;;4.59;77.38;99811.95;1765686;81;25667;-73
2023/01/03 18:50:03;;;;;;;132.10;60.45;;;;;;;4.66;77.52;99816.69;1760339;80;25456;-71
2023/01/03 18:52:38;;;;;;;135.57;60.65;;;;;;;4.72;77.52;99820.33;1707420;81;25900;-75
2023/01/03 18:55:10;;;;;;;134.40;61.65;;;;;;;4.76;77.41;99817.41;1710581;81;27391;-75
2023/01/03 18:57:36;;;;;;;140.35;64.27;;;;;;;4.70;77.57;99824.66;1706270;81;25617;-73
2023/01/03 19:00:13;;;;;;;142.85;65.37;;;;;;;4.61;78.00;99828.84;1735430;81;25624;-73
2023/01/03 19:02:39;;;;;;;145.30;66.50;;;;;;;4.67;78.31;99827.86;1737801;81;25593;-75
2023/01/03 19:05:06;;;;;;;139.82;64.40;;;;;;;4.73;78.41;99822.80;1710814;81;25734;-73
2023/01/03 19:07:34;;;;;;;150.75;67.17;;;;;;;4.77;78.27;99823.95;1760415;81;27434;-75
2023/01/03 19:10:04;;;;;;;144.57;65.25;;;;;;;4.74;78.59;99824.97;1735009;81;25937;-75
2023/01/03 19:12:37;;;;;;;136.07;63.87;;;;;;;4.76;78.73;99827.74;1764300;81;25694;-75
2023/01/03 19:15:17;;;;;;;130.15;62.27;;;;;;;4.83;78.70;99826.73;1765415;80;25528;-74
2023/01/03 19:17:43;;;;;;;133.52;64.17;;;;;;;4.88;78.73;99832.26;1735364;81;25603;-75
2023/01/03 19:20:11;;;;;;;135.63;61.55;;;;;;;4.93;78.58;99831.00;1682354;81;27356;-75
2023/01/03 19:22:39;;;;;;;122.33;60.40;;;;;;;4.98;78.68;99829.70;1765198;81;25877;-75
2023/01/03 19:25:14;;;;;;;120.67;58.25;;;;;;;4.97;78.56;99825.87;1734910;81;25725;-75
2023/01/03 19:27:44;;;;;;;120.08;56.68;;;;;;;4.98;78.74;99837.85;1763772;81;27232;-75
2023/01/03 19:30:22;;;;;;;111.92;53.75;;;;;;;5.00;78.87;99837.61;1711452;81;25670;-75
2023/01/03 19:32:55;;;;;;;116.75;56.05;;;;;;;5.00;78.94;99836.25;1725330;81;27380;-75
2023/01/03 19:35:24;;;;;;;130.05;58.90;;;;;;;5.05;79.30;99838.22;1765618;81;25634;-75
2023/01/03 19:37:51;;;;;;;137.07;63.38;;;;;;;5.01;79.29;99840.63;1683653;81;25488;-74
2023/01/03 19:40:20;;;;;;;139.28;65.37;;;;;;;4.98;79.60;99837.85;1682962;81;25695;-73
2023/01/03 19:42:54;;;;;;;142.70;64.53;;;;;;;5.02;79.74;99843.09;1711515;81;25633;-75
2023/01/03 19:45:39;;;;;;;152.02;66.35;;;;;;;5.03;79.72;99838.47;1710863;81;27693;-75
2023/01/03 19:48:16;;;;;;;151.55;68.75;;;;;;;5.07;80.08;99838.81;1719534;81;25605;-71
2023/01/03 19:50:43;;;;;;;169.35;74.67;;;;;;;5.10;80.13;99838.31;1718212;81;25499;-75
2023/01/03 19:53:11;;;;;;;147.57;67.50;;;;;;;5.14;80.46;99825.87;1697124;81;25621;-75
2023/01/03 19:55:41;;;;;;;159.70;65.85;;;;;;;5.21;80.71;99833.30;1723744;81;25571;-75
2023/01/03 19:58:24;;;;;;;186.00;71.55;;;;;;;5.28;80.82;99829.07;1753243;81;28112;-75
2023/01/03 20:00:51;;;;;;;160.12;64.10;;;;;;;5.35;80.95;99833.78;1752342;81;25659;-74
2023/01/03 20:03:34;;;;;;;153.05;63.38;;;;;;;5.43;81.03;99831.19;1727475;81;25486;-75
2023/01/03 20:06:01;;;;;;;161.50;62.93;;;;;;;5.48;80.99;99833.98;1752860;81;25669;-74
2023/01/03 20:08:27;;;;;;;165.30;66.15;;;;;;;5.55;81.00;99835.70;1723318;81;25592;-75
2023/01/03 20:10:54;;;;;;;170.85;66.82;;;;;;;5.60;80.91;99834.39;1708521;80;29005;-75
2023/01/03 20:13:25;;;;;;;188.30;71.80;;;;;;;5.65;80.73;99837.19;1753436;80;25725;-72
2023/01/03 20:15:56;;;;;;;198.28;71.15;;;;;;;5.62;80.63;99840.41;1728806;80;25522;-75
2023/01/03 20:18:34;;;;;;;212.85;76.22;;;;;;;5.61;80.75;99840.11;1753924;80;25952;-75
2023/01/03 20:21:12;;;;;;;210.32;73.85;;;;;;;5.58;80.83;99841.44;1754565;80;25648;-75
2023/01/03 20:23:47;;;;;;;185.32;68.15;;;;;;;5.56;80.97;99851.77;1783948;80;27627;-75
2023/01/03 20:26:29;;;;;;;170.55;64.05;;;;;;;5.54;81.07;99845.75;1753159;80;25662;-75
2023/01/03 20:28:57;;;;;;;168.80;64.60;;;;;;;5.53;81.04;99845.47;1778392;80;25441;-75
2023/01/03 20:31:24;;;;;;;144.75;59.30;;;;;;;5.56;81.19;99846.33;1728645;80;25957;-75
2023/01/03 20:33:51;;;;;;;158.80;63.15;;;;;;;5.59;81.05;99848.55;1753277;80;25659;-75
2023/01/03 20:36:24;;;;;;;146.37;60.30;;;;;;;5.64;81.26;99842.33;1779016;80;27438;-75
2023/01/03 20:38:57;;;;;;;142.98;58.83;;;;;;;5.76;81.23;99847.67;1778762;80;25470;-75
2023/01/03 20:41:34;;;;;;;147.65;60.25;;;;;;;5.88;81.29;99844.27;1776459;80;25619;-68
2023/01/03 20:43:54;;;;;;;136.60;59.75;;;;;;;5.95;80.88;99852.25;1753564;80;25571;-75
2023/01/03 20:46:21;;;;;;;140.28;58.42;;;;;;;5.99;80.40;99849.30;1753346;80;25770;-75
2023/01/03 20:48:57;;;;;;;144.43;58.42;;;;;;;5.96;80.50;99857.97;1778867;80;27556;-75
2023/01/03 20:51:26;;;;;;;128.10;57.33;;;;;;;5.97;80.61;99856.91;1753650;80;25703;-75
2023/01/03 20:53:52;;;;;;;137.05;58.55;;;;;;;5.92;80.11;99854.64;1753556;80;25702;-75
2023/01/03 20:56:18;;;;;;;130.15;56.05;;;;;;;5.88;80.44;99851.07;1753548;80;26311;-74
2023/01/03 20:58:44;;;;;;;135.68;57.62;;;;;;;5.83;80.06;99852.38;1769790;80;25848;-75
2023/01/03 21:01:11;;;;;;;156.47;61.13;;;;;;;5.72;80.36;99851.42;1780280;80;27564;-75
2023/01/03 21:03:37;;;;;;;172.80;65.17;;;;;;;5.65;80.49;99852.15;1724047;80;25896;-75
2023/01/03 21:06:12;;;;;;;152.40;61.40;;;;;;;5.60;80.50;99852.91;1750750;80;25746;-74
2023/01/03 21:08:53;;;;;;;131.65;58.83;;;;;;;5.55;80.39;99854.73;1750143;80;25603;-76
2023/01/03 21:11:27;;;;;;;129.87;57.43;;;;;;;5.44;80.43;99849.13;1739276;81;25484;-74
2023/01/03 21:13:56;;;;;;;193.62;69.72;;;;;;;5.38;80.60;99857.75;1749391;81;27352;-76
2023/01/03 21:16:35;;;;;;;293.12;87.97;;;;;;;5.31;80.71;99846.23;1686500;82;25942;-75
2023/01/03 21:19:15;;;;;;;182.75;68.15;;;;;;;5.29;80.84;99854.37;1745403;82;25423;-75
2023/01/03 21:21:44;;;;;;;222.10;84.65;;;;;;;5.26;80.96;99851.59;1750053;81;25584;-75
2023/01/03 21:24:13;;;;;;;493.93;143.13;;;;;;;5.24;81.15;99855.11;1753838;81;25726;-75
2023/01/03 21:26:40;;;;;;;414.15;113.32;;;;;;;5.22;81.02;99854.00;1686837;82;27446;-76
2023/01/03 21:29:07;;;;;;;237.78;82.95;;;;;;;5.22;80.87;99852.64;1709793;82;25753;-75
2023/01/03 21:31:36;;;;;;;258.35;86.65;;;;;;;5.17;80.98;99849.83;1684764;83;25689;-74
2023/01/03 21:34:05;;;;;;;226.02;77.27;;;;;;;5.12;81.13;99855.17;1683759;83;26018;-75
2023/01/03 21:36:34;;;;;;;333.43;98.78;;;;;;;5.08;81.28;99858.11;1658880;83;25640;-70
2023/01/03 21:39:02;;;;;;;170.32;66.70;;;;;;;5.01;81.37;99855.58;1706415;83;28625;-75
2023/01/03 21:41:34;;;;;;;165.32;62.10;;;;;;;4.92;81.35;99851.06;1660937;83;25794;-75
2023/01/03 21:44:03;;;;;;;151.57;58.15;;;;;;;4.85;81.58;99853.12;1714100;83;25684;-75
2023/01/03 21:46:30;;;;;;;162.75;62.78;;;;;;;4.79;81.77;99848.67;1683838;83;25791;-75
2023/01/03 21:48:57;;;;;;;148.87;56.92;;;;;;;4.71;81.95;99849.89;1707381;83;25481;-75
2023/01/03 21:51:24;;;;;;;692.30;202.50;;;;;;;4.68;82.06;99846.31;1682677;83;27651;-75
2023/01/03 21:53:50;;;;;;;247.95;77.50;;;;;;;4.66;81.99;99843.03;1663514;83;25653;-71
2023/01/03 21:56:23;;;;;;;259.30;78.40;;;;;;;4.64;81.87;99852.78;1726328;82;25770;-68